createdAt,value
2018-02-06T00:04:06.414Z,21.33
2018-02-06T00:06:34.035Z,27.63
2018-02-06T00:09:01.663Z,25.50
2018-02-06T00:11:29.381Z,27.23
2018-02-06T00:13:57.553Z,30.13
2018-02-06T00:16:25.204Z,26.13
2018-02-06T00:18:52.933Z,28.70
2018-02-06T00:21:20.589Z,27.53
2018-02-06T00:23:48.896Z,28.80
2018-02-06T00:26:16.557Z,24.47
2018-02-06T00:28:47.859Z,24.40
2018-02-06T00:31:15.467Z,21.40
2018-02-06T00:33:43.211Z,23.90
2018-02-06T00:36:10.858Z,24.37
2018-02-06T00:38:39.680Z,21.97
2018-02-06T00:41:07.376Z,25.10
2018-02-06T00:43:35.014Z,28.13
2018-02-06T00:46:02.715Z,21.17
2018-02-06T00:48:30.780Z,24.53
2018-02-06T00:50:58.808Z,27.57
2018-02-06T00:53:26.429Z,22.23
2018-02-06T00:55:54.120Z,25.10
2018-02-06T00:58:21.751Z,23.70
2018-02-06T01:00:52.054Z,24.67
2018-02-06T01:03:20.416Z,28.47
2018-02-06T01:05:48.053Z,19.37
2018-02-06T01:08:17.541Z,24.53
2018-02-06T01:10:47.466Z,22.10
2018-02-06T01:13:15.135Z,23.90
2018-02-06T01:18:21.921Z,27.15
2018-02-06T01:20:49.561Z,20.80
2018-02-06T01:23:17.188Z,21.73
2018-02-06T01:25:44.906Z,23.10
2018-02-06T01:28:15.675Z,19.57
2018-02-06T01:33:12.496Z,18.70
2018-02-06T01:35:40.152Z,23.80
2018-02-06T01:38:07.771Z,18.23
2018-02-06T01:40:35.485Z,19.40
2018-02-06T01:43:03.175Z,20.90
2018-02-06T01:45:30.814Z,21.63
2018-02-06T01:47:58.495Z,17.67
2018-02-06T01:50:26.145Z,22.17
2018-02-06T01:52:53.769Z,21.07
2018-02-06T01:55:21.467Z,20.23
2018-02-06T01:57:49.106Z,22.43
2018-02-06T02:00:18.286Z,23.30
2018-02-06T02:02:45.985Z,22.33
2018-02-06T02:05:13.693Z,21.20
2018-02-06T02:07:41.309Z,22.47
2018-02-06T02:10:09.012Z,19.40
2018-02-06T02:12:36.650Z,21.80
2018-02-06T02:15:04.305Z,20.80
2018-02-06T02:17:32.016Z,21.37
2018-02-06T02:19:59.640Z,21.23
2018-02-06T02:22:27.273Z,27.30
2018-02-06T02:24:55.012Z,23.13
2018-02-06T02:27:22.841Z,30.97
2018-02-06T02:29:50.389Z,19.70
2018-02-06T02:35:02.997Z,21.92
2018-02-06T02:37:30.657Z,20.87
2018-02-06T02:39:58.304Z,23.00
2018-02-06T04:38:39.628Z,18.33
2018-02-06T04:41:08.311Z,23.83
2018-02-06T04:43:35.862Z,17.27
2018-02-06T04:46:03.581Z,21.50
2018-02-06T04:48:31.236Z,24.43
2018-02-06T04:50:58.853Z,25.30
2018-02-06T04:53:26.536Z,17.13
2018-02-06T04:55:54.241Z,19.37
2018-02-06T04:58:21.815Z,19.73
2018-02-06T05:00:49.538Z,19.33
2018-02-06T05:03:17.185Z,17.57
2018-02-06T05:05:44.880Z,18.13
2018-02-06T05:10:52.010Z,19.75
2018-02-06T05:13:19.724Z,17.40
2018-02-06T05:15:47.886Z,20.63
2018-02-06T05:18:15.525Z,21.43
2018-02-06T05:20:43.268Z,19.70
2018-02-06T05:23:11.272Z,20.00
2018-02-06T05:25:38.896Z,18.20
2018-02-06T05:28:07.018Z,17.67
2018-02-06T05:30:39.067Z,14.97
2018-02-06T05:33:07.660Z,20.00
2018-02-06T05:35:35.309Z,19.00
2018-02-06T05:38:02.962Z,18.93
2018-02-06T05:40:31.464Z,18.03
2018-02-06T05:42:59.092Z,18.13
2018-02-06T05:45:26.747Z,17.57
2018-02-06T05:47:54.438Z,18.00
2018-02-06T05:50:22.095Z,19.47
2018-02-06T05:52:49.749Z,21.10
2018-02-06T05:57:49.322Z,22.40
2018-02-06T06:00:16.984Z,18.50
2018-02-06T06:02:44.725Z,24.83
2018-02-06T06:05:12.367Z,23.47
2018-02-06T06:07:41.822Z,24.17
2018-02-06T06:10:08.239Z,21.27
2018-02-06T06:12:36.950Z,18.60
2018-02-06T06:15:04.703Z,18.77
2018-02-06T06:17:32.310Z,14.50
2018-02-06T06:20:00.012Z,18.77
2018-02-06T06:22:28.018Z,19.60
2018-02-06T06:24:55.718Z,16.53
2018-02-06T06:27:23.416Z,14.40
2018-02-06T06:32:24.985Z,21.40
2018-02-06T06:34:52.849Z,15.27
2018-02-06T06:40:02.158Z,24.83
2018-02-06T06:42:27.174Z,21.67
2018-02-06T06:44:54.825Z,21.80
2018-02-06T06:47:22.527Z,19.63
2018-02-06T06:49:52.560Z,20.53
2018-02-06T06:52:20.492Z,17.70
2018-02-06T06:54:48.201Z,19.60
2018-02-06T06:57:20.429Z,16.70
2018-02-06T06:59:47.890Z,16.97
2018-02-06T07:02:17.054Z,19.77
2018-02-06T07:04:44.682Z,15.70
2018-02-06T07:07:13.063Z,21.90
2018-02-06T07:09:40.747Z,19.70
2018-02-06T07:12:08.385Z,17.90
2018-02-06T07:14:36.980Z,17.90
2018-02-06T07:17:04.660Z,20.43
2018-02-06T07:19:32.308Z,17.73
2018-02-06T07:21:59.926Z,19.17
2018-02-06T07:24:30.440Z,21.87
2018-02-06T07:26:55.312Z,15.93
2018-02-06T07:29:22.952Z,14.87
2018-02-06T07:31:50.634Z,16.33
2018-02-06T07:34:19.268Z,14.13
2018-02-06T07:36:46.928Z,14.47
2018-02-06T07:39:14.608Z,15.00
2018-02-06T07:41:42.282Z,15.63
2018-02-06T07:44:10.408Z,29.13
2018-02-06T07:46:38.103Z,17.40
2018-02-06T07:49:06.972Z,16.57
2018-02-06T07:51:35.459Z,20.80
2018-02-06T07:54:03.159Z,15.80
2018-02-06T07:56:31.682Z,17.90
2018-02-06T07:58:59.316Z,15.80
2018-02-06T08:04:06.111Z,16.73
2018-02-06T08:06:33.836Z,17.43
2018-02-06T08:09:01.471Z,19.57
2018-02-06T08:11:30.095Z,15.67
2018-02-06T08:13:57.762Z,14.53
2018-02-06T08:16:26.336Z,20.00
2018-02-06T08:18:53.999Z,24.20
2018-02-06T08:21:21.689Z,19.47
2018-02-06T08:23:50.178Z,17.87
2018-02-06T08:26:19.835Z,19.20
2018-02-06T08:28:47.544Z,12.73
2018-02-06T08:31:15.197Z,25.07
2018-02-06T08:33:43.803Z,22.80
2018-02-06T08:36:11.492Z,34.53
2018-02-06T08:38:39.147Z,27.37
2018-02-06T08:41:07.852Z,20.07
2018-02-06T08:43:35.527Z,17.13
2018-02-06T08:46:03.193Z,36.97
2018-02-06T08:48:30.831Z,109.43
2018-02-06T08:50:59.400Z,62.43
2018-02-06T08:53:27.057Z,21.90
2018-02-06T08:55:54.998Z,18.43
2018-02-06T08:58:22.690Z,54.27
2018-02-06T09:00:50.620Z,21.40
2018-02-06T09:03:18.322Z,17.70
2018-02-06T09:05:46.000Z,17.40
2018-02-06T09:08:14.473Z,76.40
2018-02-06T09:10:42.968Z,40.47
2018-02-06T09:13:11.042Z,28.27
2018-02-06T09:15:38.717Z,39.37
2018-02-06T09:18:07.320Z,44.63
2018-02-06T09:20:35.001Z,23.47
2018-02-06T09:23:03.569Z,14.93
2018-02-06T09:25:31.222Z,19.93
2018-02-06T09:30:40.952Z,16.45
2018-02-06T09:33:09.399Z,24.90
2018-02-06T09:35:38.076Z,16.00
2018-02-06T09:38:05.699Z,15.30
2018-02-06T09:40:33.413Z,19.73
2018-02-06T09:43:01.036Z,23.90
2018-02-06T09:45:28.664Z,23.97
2018-02-06T09:47:56.352Z,10.90
2018-02-06T09:50:24.002Z,13.10
2018-02-06T09:52:52.297Z,15.73
2018-02-06T09:55:20.041Z,22.53
2018-02-06T09:57:48.528Z,16.33
2018-02-06T10:00:17.149Z,21.70
2018-02-06T10:02:44.844Z,17.20
2018-02-06T10:05:12.469Z,10.07
2018-02-06T10:07:40.121Z,14.90
2018-02-06T10:10:07.831Z,17.77
2018-02-06T10:12:36.331Z,15.37
2018-02-06T10:15:03.986Z,10.53
2018-02-06T10:17:31.688Z,18.00
2018-02-06T10:19:59.334Z,13.43
2018-02-06T10:22:27.903Z,18.00
2018-02-06T10:24:55.991Z,12.50
2018-02-06T10:27:24.479Z,11.70
2018-02-06T10:29:52.112Z,7.97
2018-02-06T10:32:19.809Z,9.87
2018-02-06T10:34:47.419Z,13.77
2018-02-06T10:37:15.096Z,11.83
2018-02-06T10:39:42.785Z,9.23
2018-02-06T10:42:10.414Z,17.10
2018-02-06T10:44:38.900Z,11.73
2018-02-06T10:47:07.577Z,12.93
2018-02-06T10:49:35.211Z,12.03
2018-02-06T10:52:03.670Z,14.33
2018-02-06T10:57:12.336Z,13.10
2018-02-06T10:59:41.008Z,15.93
2018-02-06T11:02:09.610Z,17.53
2018-02-06T11:04:37.218Z,10.77
2018-02-06T11:07:05.859Z,17.40
2018-02-06T11:09:33.485Z,20.27
2018-02-06T11:12:01.108Z,21.10
2018-02-06T11:14:29.717Z,12.90
2018-02-06T11:16:57.416Z,22.57
2018-02-06T11:19:25.066Z,17.77
2018-02-06T11:21:52.774Z,15.07
2018-02-06T11:24:20.416Z,11.80
2018-02-06T11:26:49.746Z,12.67
2018-02-06T11:29:17.438Z,11.40
2018-02-06T11:31:46.991Z,16.53
2018-02-06T11:34:15.344Z,21.40
2018-02-06T11:36:43.040Z,18.60
2018-02-06T11:39:10.723Z,16.30
2018-02-06T11:41:38.385Z,19.50
2018-02-06T11:44:06.875Z,26.40
2018-02-06T11:46:34.503Z,16.53
2018-02-06T11:49:02.107Z,19.80
2018-02-06T11:51:29.824Z,21.23
2018-02-06T11:53:57.441Z,16.20
2018-02-06T11:56:25.045Z,10.50
2018-02-06T11:58:52.764Z,9.50
2018-02-06T12:01:20.407Z,16.07
2018-02-06T12:03:48.046Z,12.97
2018-02-06T12:06:19.797Z,17.60
2018-02-06T12:08:47.407Z,16.70
2018-02-06T12:11:15.932Z,13.07
2018-02-06T12:13:43.646Z,12.63
2018-02-06T12:16:11.287Z,20.60
2018-02-06T12:21:21.262Z,21.12
2018-02-06T12:23:48.907Z,12.70
2018-02-06T12:26:16.797Z,18.93
2018-02-06T12:28:44.519Z,19.17
2018-02-06T12:31:12.248Z,22.40
2018-02-06T12:33:39.876Z,23.27
2018-02-06T12:36:07.638Z,16.27
2018-02-06T12:38:35.264Z,17.73
2018-02-06T12:41:02.907Z,14.03
2018-02-06T12:43:31.575Z,16.63
2018-02-06T12:45:59.146Z,14.93
2018-02-06T12:48:27.033Z,38.53
2018-02-06T12:50:54.728Z,14.97
2018-02-06T12:53:22.376Z,12.83
2018-02-06T12:55:49.990Z,21.13
2018-02-06T12:58:18.511Z,13.03
2018-02-06T13:00:46.161Z,16.80
2018-02-06T13:03:14.587Z,7.93
2018-02-06T13:08:14.940Z,6.80
2018-02-06T13:10:42.630Z,13.50
2018-02-06T13:13:11.093Z,11.87
2018-02-06T13:15:38.732Z,10.77
2018-02-06T13:18:06.453Z,11.47
2018-02-06T13:20:34.099Z,20.87
2018-02-06T13:23:01.724Z,13.00
2018-02-06T13:25:29.461Z,10.67
2018-02-06T13:27:57.065Z,9.17
2018-02-06T13:30:25.444Z,7.80
2018-02-06T13:32:53.153Z,10.67
2018-02-06T13:35:20.790Z,17.50
2018-02-06T13:37:48.438Z,10.93
2018-02-06T13:40:16.148Z,15.40
2018-02-06T13:45:22.923Z,5.45
2018-02-06T13:47:50.544Z,5.83
2018-02-06T13:50:18.440Z,8.13
2018-02-06T13:52:46.977Z,3.17
2018-02-06T13:55:15.424Z,5.70
2018-02-06T13:57:45.821Z,2.53
2018-02-06T14:00:13.799Z,0.80
2018-02-06T14:02:42.670Z,0.73
2018-02-06T14:05:11.193Z,0.63
2018-02-06T14:07:39.214Z,3.30
2018-02-06T14:10:06.834Z,1.70
2018-02-06T14:12:34.478Z,0.60
2018-02-06T14:15:02.184Z,1.27
2018-02-06T14:17:29.828Z,0.43
2018-02-06T14:19:57.465Z,0.67
2018-02-06T14:22:25.160Z,3.57
2018-02-06T14:24:53.373Z,0.30
2018-02-06T14:27:21.034Z,1.13
2018-02-06T14:29:49.532Z,1.10
2018-02-06T14:32:17.148Z,0.50
2018-02-06T14:34:44.759Z,0.20
2018-02-06T14:37:12.460Z,0.50
2018-02-06T14:39:41.041Z,4.43
2018-02-06T14:42:09.485Z,1.97
2018-02-06T14:44:37.625Z,0.40
2018-02-06T14:47:05.265Z,0.93
2018-02-06T14:49:32.888Z,1.33
2018-02-06T14:52:00.605Z,0.53
2018-02-06T14:54:28.254Z,0.30
2018-02-06T14:56:55.860Z,0.27
2018-02-06T14:59:24.539Z,1.17
2018-02-06T15:01:53.047Z,4.20
2018-02-06T15:04:21.494Z,0.57
2018-02-06T15:06:50.132Z,0.30
2018-02-06T15:09:17.760Z,2.50
2018-02-06T15:14:24.565Z,0.73
2018-02-06T15:16:53.148Z,1.87
2018-02-06T15:19:21.745Z,2.20
2018-02-06T15:21:51.176Z,0.70
2018-02-06T15:24:18.786Z,0.20
2018-02-06T15:26:47.331Z,0.30
2018-02-06T15:29:15.034Z,3.47
2018-02-06T15:31:42.641Z,1.20
2018-02-06T15:34:12.742Z,1.40
2018-02-06T15:36:40.450Z,0.67
2018-02-06T15:39:08.095Z,0.27
2018-02-06T15:41:35.694Z,0.20
2018-02-06T15:44:03.397Z,1.03
2018-02-06T15:46:31.030Z,0.30
2018-02-06T15:48:58.700Z,1.30
2018-02-06T15:51:26.367Z,2.27
2018-02-06T15:53:54.007Z,0.10
2018-02-06T15:56:21.635Z,0.40
2018-02-06T15:58:49.336Z,1.90
2018-02-06T16:03:57.621Z,1.75
2018-02-06T16:06:25.254Z,0.80
2018-02-06T16:08:52.905Z,0.43
2018-02-06T16:11:21.334Z,0.67
2018-02-06T16:13:48.867Z,0.30
2018-02-06T16:16:16.581Z,0.50
2018-02-06T16:18:45.234Z,0.30
2018-02-06T16:21:12.894Z,0.90
2018-02-06T16:23:41.338Z,0.30
2018-02-06T16:26:09.058Z,0.77
2018-02-06T16:28:36.680Z,6.50
2018-02-06T16:31:05.183Z,0.70
2018-02-06T16:33:33.071Z,1.37
2018-02-06T16:36:00.675Z,4.60
2018-02-06T16:38:28.293Z,2.43
2018-02-06T16:40:56.026Z,0.20
2018-02-06T16:43:23.979Z,0.50
2018-02-06T16:45:51.912Z,0.30
2018-02-06T16:48:19.599Z,3.50
2018-02-06T16:50:47.868Z,0.87
2018-02-06T16:53:16.409Z,1.87
2018-02-06T16:55:44.095Z,0.93
2018-02-06T17:00:51.517Z,5.03
2018-02-06T17:03:19.140Z,0.80
2018-02-06T17:05:46.757Z,2.43
2018-02-06T17:08:14.497Z,0.20
2018-02-06T17:10:42.152Z,4.33
2018-02-06T17:13:09.806Z,21.23
2018-02-06T17:15:37.572Z,4.63
2018-02-06T17:18:06.116Z,1.67
2018-02-06T17:20:34.625Z,1.00
2018-02-06T17:23:02.395Z,0.40
2018-02-06T17:25:30.064Z,0.90
2018-02-06T17:27:58.165Z,0.60
2018-02-06T17:30:25.867Z,1.43
2018-02-06T17:32:53.547Z,0.67
2018-02-06T17:35:21.162Z,4.20
2018-02-06T17:37:48.886Z,6.17
2018-02-06T17:40:16.532Z,7.30
2018-02-06T17:42:44.736Z,4.13
2018-02-06T17:45:13.307Z,11.17
2018-02-06T17:47:41.004Z,2.40
2018-02-06T17:50:08.663Z,7.17
2018-02-06T17:52:36.364Z,8.97
2018-02-06T17:55:04.012Z,8.07
2018-02-06T17:57:32.982Z,6.40
2018-02-06T18:00:00.678Z,7.00
2018-02-06T18:02:28.322Z,11.70
2018-02-06T18:04:55.987Z,9.27
2018-02-06T18:07:23.698Z,12.97
2018-02-06T18:09:52.164Z,13.33
2018-02-06T18:12:19.788Z,10.23
2018-02-06T18:14:47.486Z,5.03
2018-02-06T18:17:15.141Z,21.30
2018-02-06T18:19:42.788Z,7.20
2018-02-06T18:24:49.592Z,12.30
2018-02-06T18:27:17.735Z,9.83
2018-02-06T18:29:45.388Z,11.37
2018-02-06T18:32:13.064Z,11.73
2018-02-06T18:34:40.805Z,12.60
2018-02-06T18:37:09.430Z,10.67
2018-02-06T18:39:37.131Z,12.77
2018-02-06T18:42:04.829Z,14.97
2018-02-06T18:44:32.523Z,9.53
2018-02-06T18:47:00.154Z,14.80
2018-02-06T18:49:27.838Z,13.00
2018-02-06T18:51:57.232Z,13.77
2018-02-06T18:54:25.686Z,11.50
2018-02-06T18:56:53.423Z,11.73
2018-02-06T18:59:21.250Z,11.77
2018-02-06T19:01:48.886Z,14.07
2018-02-06T19:04:16.599Z,12.30
2018-02-06T19:06:44.273Z,7.47
2018-02-06T19:09:11.861Z,11.20
2018-02-06T19:11:40.109Z,13.20
2018-02-06T19:14:08.731Z,13.77
2018-02-06T19:16:36.439Z,15.87
2018-02-06T19:19:04.050Z,14.13
2018-02-06T19:21:31.686Z,15.00
2018-02-06T19:23:59.360Z,13.13
2018-02-06T19:26:27.049Z,10.43
2018-02-06T19:28:54.689Z,11.87
2018-02-06T19:31:22.429Z,13.00
2018-02-06T19:33:50.094Z,13.87
2018-02-06T19:36:18.837Z,14.47
2018-02-06T19:38:46.383Z,13.30
2018-02-06T19:41:14.086Z,12.03
2018-02-06T19:43:41.737Z,14.83
2018-02-06T19:48:50.805Z,15.27
2018-02-06T19:51:18.625Z,14.13
2018-02-06T19:53:46.300Z,11.77
2018-02-06T19:56:13.972Z,12.93
2018-02-06T19:58:41.633Z,13.37
2018-02-06T20:01:09.309Z,5.70
2018-02-06T20:03:37.021Z,13.80
2018-02-06T20:06:04.667Z,10.37
2018-02-06T20:08:32.314Z,11.20
2018-02-06T20:11:03.726Z,11.30
2018-02-06T20:13:31.398Z,9.90
2018-02-06T20:15:59.046Z,16.57
2018-02-06T20:18:26.783Z,22.70
2018-02-06T20:20:54.423Z,17.87
2018-02-06T20:23:22.054Z,18.03
2018-02-06T20:25:50.086Z,18.90
2018-02-06T20:28:17.724Z,19.93
2018-02-06T20:30:45.333Z,16.47
2018-02-06T20:33:13.047Z,15.13
2018-02-06T20:35:40.672Z,16.87
2018-02-06T20:38:08.376Z,26.13
2018-02-06T20:40:36.072Z,15.63
2018-02-06T20:43:03.716Z,14.83
2018-02-06T20:45:31.368Z,15.63
2018-02-06T20:47:59.065Z,12.10
2018-02-06T20:50:27.500Z,18.83
2018-02-06T20:52:55.149Z,16.57
2018-02-06T20:55:22.840Z,19.37
2018-02-06T20:57:50.925Z,19.87
2018-02-06T21:00:18.567Z,15.17
2018-02-06T21:02:46.273Z,17.20
2018-02-06T21:05:13.924Z,17.97
2018-02-06T21:10:22.797Z,18.52
2018-02-06T21:12:50.436Z,16.27
2018-02-06T21:15:18.074Z,19.50
2018-02-06T21:17:45.804Z,20.03
2018-02-06T21:20:13.451Z,15.83
2018-02-06T21:22:41.348Z,16.03
2018-02-06T21:25:08.924Z,15.77
2018-02-06T21:27:36.588Z,18.53
2018-02-06T21:30:04.222Z,33.30
2018-02-06T21:32:31.928Z,19.30
2018-02-06T21:34:59.557Z,21.30
2018-02-06T21:37:27.228Z,21.97
2018-02-06T21:39:55.280Z,21.33
2018-02-06T21:42:22.933Z,12.73
2018-02-06T21:44:50.564Z,14.53
2018-02-06T21:47:19.111Z,15.87
2018-02-06T21:49:46.686Z,15.27
2018-02-06T21:52:14.455Z,18.03
2018-02-06T21:57:13.976Z,14.67
2018-02-06T21:59:41.597Z,17.67
2018-02-06T22:02:09.439Z,16.73
2018-02-06T22:04:37.059Z,14.73
2018-02-06T22:07:04.814Z,17.03
2018-02-06T22:09:32.474Z,21.97
2018-02-06T22:12:01.469Z,14.77
2018-02-06T22:14:29.740Z,17.87
2018-02-06T22:16:57.661Z,15.40
2018-02-06T22:19:25.209Z,17.93
2018-02-06T22:21:53.406Z,21.37
2018-02-06T22:24:21.752Z,19.50
2018-02-06T22:26:49.327Z,17.40
2018-02-06T22:29:17.218Z,21.90
2018-02-06T22:31:44.933Z,17.33
2018-02-06T22:34:12.574Z,18.60
2018-02-06T22:39:19.469Z,20.23
2018-02-06T22:41:47.076Z,24.93
2018-02-06T22:44:14.726Z,22.17
2018-02-06T22:46:42.445Z,21.17
2018-02-06T22:49:10.094Z,19.90
2018-02-06T22:51:41.229Z,21.47
2018-02-06T22:54:07.511Z,23.43
2018-02-06T22:56:35.216Z,18.27
2018-02-06T22:59:02.866Z,19.63
2018-02-06T23:01:30.675Z,19.23
2018-02-06T23:03:58.355Z,19.93
2018-02-06T23:09:07.695Z,22.45
2018-02-06T23:14:10.666Z,21.53
2018-02-06T23:16:38.316Z,21.50
2018-02-06T23:19:06.913Z,20.80
2018-02-06T23:21:35.705Z,23.90
2018-02-06T23:24:03.322Z,22.00
2018-02-06T23:26:32.181Z,19.37
2018-02-06T23:28:59.884Z,18.37
2018-02-06T23:31:27.567Z,18.27
2018-02-06T23:33:55.193Z,22.20
2018-02-06T23:36:22.913Z,21.43
2018-02-06T23:38:50.555Z,18.77
2018-02-06T23:41:18.200Z,19.93
2018-02-06T23:43:45.897Z,20.90
2018-02-06T23:46:13.549Z,27.50
2018-02-06T23:51:13.519Z,23.10
2018-02-06T23:53:41.150Z,26.30
2018-02-06T23:56:08.802Z,26.17
2018-02-06T23:58:36.517Z,21.30
